createdAt,value
2022-10-30T00:00:48.168Z,13.30
2022-10-30T00:03:17.331Z,13.20
2022-10-30T00:05:46.542Z,14.00
2022-10-30T00:08:16.181Z,13.15
2022-10-30T00:10:44.939Z,12.93
2022-10-30T00:13:14.048Z,13.73
2022-10-30T00:15:48.153Z,12.60
2022-10-30T00:18:15.971Z,12.90
2022-10-30T00:20:43.862Z,12.45
2022-10-30T00:23:11.684Z,12.98
2022-10-30T00:25:39.577Z,13.32
2022-10-30T00:28:08.928Z,12.52
2022-10-30T00:30:37.409Z,12.75
2022-10-30T00:33:06.867Z,12.43
2022-10-30T00:35:34.802Z,12.63
2022-10-30T00:38:03.713Z,13.07
2022-10-30T00:40:31.580Z,13.40
2022-10-30T00:42:59.371Z,11.55
2022-10-30T00:45:29.190Z,12.25
2022-10-30T00:48:00.751Z,11.75
2022-10-30T00:50:34.214Z,12.32
2022-10-30T00:53:09.848Z,12.57
2022-10-30T00:55:41.684Z,12.95
2022-10-30T00:58:13.966Z,13.63
2022-10-30T01:00:47.339Z,13.43
2022-10-30T01:03:16.414Z,12.60
2022-10-30T01:05:50.180Z,12.35
2022-10-30T01:08:18.461Z,12.07
2022-10-30T01:10:49.093Z,12.48
2022-10-30T01:13:18.963Z,12.95
2022-10-30T01:16:00.751Z,13.32
2022-10-30T01:18:36.039Z,12.20
2022-10-30T01:21:20.944Z,12.65
2022-10-30T01:24:04.090Z,13.75
2022-10-30T01:26:44.881Z,13.35
2022-10-30T01:29:36.078Z,14.30
2022-10-30T01:32:22.697Z,13.30
2022-10-30T01:34:58.419Z,13.63
2022-10-30T01:37:34.266Z,13.85
2022-10-30T01:40:06.801Z,13.98
2022-10-30T01:42:50.912Z,15.65
2022-10-30T01:45:39.714Z,14.55
2022-10-30T01:48:23.589Z,13.88
2022-10-30T01:51:00.230Z,13.60
2022-10-30T01:53:44.160Z,14.50
2022-10-30T01:56:21.461Z,14.43
2022-10-30T01:58:57.595Z,14.75
2022-10-30T02:01:29.711Z,14.75
2022-10-30T02:03:58.189Z,14.70
2022-10-30T02:06:26.932Z,15.07
2022-10-30T02:08:58.217Z,14.68
2022-10-30T02:11:27.952Z,13.93
2022-10-30T02:13:58.539Z,13.95
2022-10-30T02:16:26.411Z,13.57
2022-10-30T02:18:54.265Z,14.38
2022-10-30T02:21:23.504Z,13.93
2022-10-30T02:23:51.535Z,14.18
2022-10-30T02:26:19.442Z,13.88
2022-10-30T02:28:47.365Z,14.48
2022-10-30T02:31:15.342Z,15.27
2022-10-30T02:33:46.632Z,14.13
2022-10-30T02:36:15.492Z,14.25
2022-10-30T02:38:45.381Z,14.55
2022-10-30T02:41:14.114Z,13.90
2022-10-30T02:43:42.991Z,13.38
2022-10-30T02:46:10.878Z,13.18
2022-10-30T02:48:38.764Z,13.98
2022-10-30T02:51:06.986Z,13.80
2022-10-30T02:53:35.257Z,13.95
2022-10-30T02:56:09.989Z,13.65
2022-10-30T02:58:38.079Z,13.50
2022-10-30T03:01:07.881Z,13.65
2022-10-30T03:03:35.733Z,14.70
2022-10-30T03:06:04.084Z,13.40
2022-10-30T03:08:32.211Z,12.65
2022-10-30T03:11:01.949Z,12.73
2022-10-30T03:13:33.298Z,12.52
2022-10-30T03:16:02.595Z,12.50
2022-10-30T03:18:33.264Z,12.30
2022-10-30T03:21:09.763Z,11.75
2022-10-30T03:23:38.219Z,13.20
2022-10-30T03:26:06.693Z,12.15
2022-10-30T03:28:41.793Z,13.18
2022-10-30T03:31:11.784Z,12.63
2022-10-30T03:33:41.650Z,11.88
2022-10-30T03:36:11.899Z,13.23
2022-10-30T03:38:40.046Z,12.18
2022-10-30T03:41:08.323Z,13.20
2022-10-30T03:43:36.391Z,12.07
2022-10-30T03:46:07.035Z,12.23
2022-10-30T03:48:35.429Z,12.50
2022-10-30T03:51:03.410Z,12.27
2022-10-30T03:53:31.354Z,11.73
2022-10-30T03:56:01.168Z,11.60
2022-10-30T03:58:36.998Z,11.93
2022-10-30T04:01:10.897Z,12.30
2022-10-30T04:03:41.869Z,12.20
2022-10-30T04:06:11.947Z,11.57
2022-10-30T04:08:39.940Z,12.05
2022-10-30T04:11:07.986Z,12.32
2022-10-30T04:13:36.603Z,10.93
2022-10-30T04:16:05.384Z,12.27
2022-10-30T04:18:36.607Z,11.60
2022-10-30T04:21:04.520Z,11.70
2022-10-30T04:23:34.859Z,11.50
2022-10-30T04:26:02.926Z,11.20
2022-10-30T04:28:31.045Z,12.07
2022-10-30T04:30:59.590Z,11.68
2022-10-30T04:33:28.703Z,11.05
2022-10-30T04:35:59.569Z,11.20
2022-10-30T04:38:28.084Z,11.68
2022-10-30T04:40:57.209Z,10.70
2022-10-30T04:43:37.563Z,11.35
2022-10-30T04:46:06.292Z,11.88
2022-10-30T04:48:36.172Z,12.07
2022-10-30T04:51:05.553Z,11.80
2022-10-30T04:53:33.548Z,11.80
2022-10-30T04:56:08.234Z,10.65
2022-10-30T04:58:37.863Z,11.55
2022-10-30T05:01:08.660Z,10.85
2022-10-30T05:03:38.665Z,11.77
2022-10-30T05:06:21.429Z,10.82
2022-10-30T05:08:49.347Z,10.40
2022-10-30T05:11:27.926Z,10.32
2022-10-30T05:13:57.013Z,10.68
2022-10-30T05:16:24.944Z,10.45
2022-10-30T05:18:53.953Z,12.00
2022-10-30T05:21:24.157Z,11.15
2022-10-30T05:23:52.054Z,11.77
2022-10-30T05:26:20.558Z,11.27
2022-10-30T05:28:48.845Z,11.13
2022-10-30T05:31:16.693Z,11.05
2022-10-30T05:34:07.308Z,10.93
2022-10-30T05:36:38.845Z,10.82
2022-10-30T05:39:07.252Z,10.85
2022-10-30T05:41:41.280Z,10.90
2022-10-30T05:44:10.193Z,10.80
2022-10-30T05:46:42.575Z,10.57
2022-10-30T05:49:36.808Z,9.98
2022-10-30T05:52:09.397Z,10.45
2022-10-30T05:54:37.720Z,10.77
2022-10-30T05:59:40.617Z,10.10
2022-10-30T06:02:08.987Z,10.65
2022-10-30T06:04:37.521Z,10.30
2022-10-30T06:07:14.999Z,10.20
2022-10-30T06:09:43.474Z,10.15
2022-10-30T06:12:27.298Z,9.65
2022-10-30T06:15:18.284Z,9.73
2022-10-30T06:17:46.139Z,10.38
2022-10-30T06:20:28.720Z,10.50
2022-10-30T06:23:23.787Z,10.63
2022-10-30T06:26:00.659Z,9.88
2022-10-30T06:28:35.122Z,9.35
2022-10-30T06:31:03.331Z,9.75
2022-10-30T06:33:32.528Z,9.75
2022-10-30T06:36:01.428Z,9.40
2022-10-30T06:38:30.918Z,9.02
2022-10-30T06:41:00.466Z,9.52
2022-10-30T06:43:46.195Z,8.88
2022-10-30T06:46:28.959Z,9.45
2022-10-30T06:49:00.577Z,9.98
2022-10-30T06:51:29.543Z,9.68
2022-10-30T06:54:00.837Z,8.98
2022-10-30T06:56:40.481Z,9.05
2022-10-30T06:59:08.733Z,8.57
2022-10-30T07:02:07.083Z,8.57
2022-10-30T07:04:47.065Z,8.63
2022-10-30T07:07:15.386Z,9.20
2022-10-30T07:09:46.513Z,8.90
2022-10-30T07:12:16.437Z,8.53
2022-10-30T07:15:12.119Z,8.25
2022-10-30T07:17:53.871Z,9.23
2022-10-30T07:20:24.962Z,8.52
2022-10-30T07:22:53.260Z,8.90
2022-10-30T07:25:22.909Z,8.98
2022-10-30T07:27:57.808Z,9.23
2022-10-30T07:30:43.118Z,8.90
2022-10-30T07:33:21.899Z,8.77
2022-10-30T07:35:56.053Z,7.85
2022-10-30T07:38:32.612Z,9.25
2022-10-30T07:41:14.676Z,8.93
2022-10-30T07:43:50.705Z,9.07
2022-10-30T07:46:56.556Z,9.63
2022-10-30T07:49:45.974Z,8.23
2022-10-30T07:52:17.574Z,8.57
2022-10-30T07:54:48.275Z,8.82
2022-10-30T08:00:29.813Z,8.27
2022-10-30T08:03:07.336Z,8.70
2022-10-30T08:05:45.485Z,8.68
2022-10-30T08:08:19.607Z,8.68
2022-10-30T08:10:54.374Z,8.52
2022-10-30T08:13:23.762Z,8.38
2022-10-30T08:15:51.802Z,9.75
2022-10-30T08:18:19.663Z,8.73
2022-10-30T08:20:50.895Z,8.32
2022-10-30T08:23:21.700Z,8.50
2022-10-30T08:25:49.758Z,8.13
2022-10-30T08:28:18.402Z,9.13
2022-10-30T08:30:47.781Z,7.70
2022-10-30T08:33:18.907Z,9.40
2022-10-30T08:36:07.293Z,8.18
2022-10-30T08:38:35.249Z,7.70
2022-10-30T08:41:24.856Z,8.23
2022-10-30T08:43:53.582Z,7.97
2022-10-30T08:46:23.300Z,7.80
2022-10-30T08:48:51.113Z,8.23
2022-10-30T08:51:19.677Z,7.57
2022-10-30T08:53:49.229Z,7.93
2022-10-30T08:56:17.473Z,7.15
2022-10-30T09:01:42.027Z,6.75
2022-10-30T09:04:22.379Z,6.93
2022-10-30T09:07:11.949Z,7.13
2022-10-30T09:10:07.990Z,7.40
2022-10-30T09:12:37.712Z,6.97
2022-10-30T09:15:06.585Z,7.00
2022-10-30T09:17:45.777Z,6.85
2022-10-30T09:20:13.762Z,7.03
2022-10-30T09:22:42.587Z,7.15
2022-10-30T09:25:11.142Z,6.53
2022-10-30T09:27:51.186Z,7.32
2022-10-30T09:30:20.069Z,6.13
2022-10-30T09:32:58.283Z,6.03
2022-10-30T09:35:41.666Z,6.15
2022-10-30T09:38:11.621Z,6.35
2022-10-30T09:40:52.905Z,5.53
2022-10-30T09:43:35.415Z,5.60
2022-10-30T09:46:16.845Z,5.43
2022-10-30T09:49:07.381Z,5.72
2022-10-30T09:52:00.548Z,6.03
2022-10-30T09:54:38.440Z,5.63
2022-10-30T09:57:17.023Z,5.65
2022-10-30T10:00:00.913Z,6.10
2022-10-30T10:02:37.413Z,5.30
2022-10-30T10:05:16.512Z,5.47
2022-10-30T10:11:06.625Z,5.70
2022-10-30T10:13:40.036Z,5.60
2022-10-30T10:16:15.514Z,5.25
2022-10-30T10:18:47.643Z,5.30
2022-10-30T10:21:24.972Z,5.45
2022-10-30T10:23:56.115Z,5.63
2022-10-30T10:26:30.704Z,5.28
2022-10-30T10:29:20.484Z,5.03
2022-10-30T10:31:56.552Z,9.05
2022-10-30T10:34:48.975Z,5.28
2022-10-30T10:37:31.687Z,5.18
2022-10-30T10:40:17.314Z,4.93
2022-10-30T10:42:53.769Z,4.43
2022-10-30T10:45:31.015Z,4.70
2022-10-30T10:48:18.095Z,4.95
2022-10-30T10:50:50.792Z,4.43
2022-10-30T10:53:25.775Z,4.32
2022-10-30T10:55:58.752Z,4.55
2022-10-30T10:58:31.499Z,4.78
2022-10-30T11:01:00.359Z,4.25
2022-10-30T11:03:38.160Z,5.10
2022-10-30T11:06:21.159Z,5.13
2022-10-30T11:08:50.635Z,4.75
2022-10-30T11:11:18.563Z,4.70
2022-10-30T11:13:46.464Z,3.90
2022-10-30T11:16:26.420Z,4.75
2022-10-30T11:18:59.106Z,4.43
2022-10-30T11:21:28.827Z,5.30
2022-10-30T11:23:58.037Z,4.03
2022-10-30T11:26:29.435Z,4.57
2022-10-30T11:29:00.816Z,4.60
2022-10-30T11:31:34.760Z,4.93
2022-10-30T11:34:26.178Z,4.55
2022-10-30T11:36:55.640Z,4.68
2022-10-30T11:39:27.063Z,4.47
2022-10-30T11:42:01.523Z,5.13
2022-10-30T11:44:33.928Z,5.00
2022-10-30T11:47:02.393Z,3.93
2022-10-30T11:49:40.566Z,4.90
2022-10-30T11:52:09.931Z,4.22
2022-10-30T11:54:44.722Z,5.55
2022-10-30T11:57:22.564Z,5.00
2022-10-30T11:59:53.057Z,5.18
2022-10-30T12:02:27.190Z,4.57
2022-10-30T12:04:55.620Z,4.78
2022-10-30T12:07:29.273Z,4.88
2022-10-30T12:09:59.404Z,5.22
2022-10-30T12:12:31.655Z,5.50
2022-10-30T12:15:11.728Z,4.18
2022-10-30T12:17:40.926Z,5.55
2022-10-30T12:20:14.723Z,4.30
2022-10-30T12:22:42.812Z,4.68
2022-10-30T12:25:23.743Z,4.38
2022-10-30T12:27:59.179Z,4.07
2022-10-30T12:30:29.945Z,4.60
2022-10-30T12:33:01.823Z,4.00
2022-10-30T12:35:40.570Z,4.18
2022-10-30T12:38:16.697Z,4.22
2022-10-30T12:40:56.835Z,4.78
2022-10-30T12:43:28.126Z,4.82
2022-10-30T12:46:03.447Z,4.90
2022-10-30T12:48:37.766Z,5.43
2022-10-30T12:51:18.364Z,4.07
2022-10-30T12:53:58.475Z,4.18
2022-10-30T12:56:31.832Z,4.72
2022-10-30T12:59:15.094Z,4.60
2022-10-30T13:01:48.884Z,4.22
2022-10-30T13:04:19.859Z,4.70
2022-10-30T13:06:53.136Z,4.60
2022-10-30T13:11:59.231Z,4.30
2022-10-30T13:14:39.639Z,3.90
2022-10-30T13:17:12.330Z,4.60
2022-10-30T13:19:42.049Z,4.40
2022-10-30T13:22:18.119Z,4.13
2022-10-30T13:24:59.215Z,4.20
2022-10-30T13:27:41.032Z,4.15
2022-10-30T13:30:15.089Z,3.97
2022-10-30T13:32:56.242Z,4.40
2022-10-30T13:35:35.562Z,4.35
2022-10-30T13:38:19.364Z,4.00
2022-10-30T13:40:52.603Z,3.92
2022-10-30T13:46:08.863Z,4.80
2022-10-30T13:48:51.478Z,4.68
2022-10-30T13:51:35.287Z,4.37
2022-10-30T13:54:11.846Z,4.40
2022-10-30T13:56:41.217Z,4.82
2022-10-30T13:59:21.798Z,4.18
2022-10-30T14:02:00.679Z,4.00
2022-10-30T14:04:38.500Z,3.80
2022-10-30T14:07:24.075Z,4.80
2022-10-30T14:10:01.220Z,3.75
2022-10-30T14:12:47.517Z,3.97
2022-10-30T14:15:34.622Z,4.60
2022-10-30T14:18:25.639Z,4.10
2022-10-30T14:20:54.404Z,3.90
2022-10-30T14:23:24.142Z,4.00
2022-10-30T14:26:21.406Z,3.92
2022-10-30T14:28:51.201Z,4.40
2022-10-30T14:31:33.734Z,3.83
2022-10-30T14:34:01.845Z,4.20
2022-10-30T14:36:50.807Z,3.97
2022-10-30T14:39:30.885Z,5.10
2022-10-30T14:42:13.721Z,4.40
2022-10-30T14:44:53.213Z,4.53
2022-10-30T14:47:44.176Z,4.28
2022-10-30T14:50:28.995Z,4.65
2022-10-30T14:53:11.510Z,4.47
2022-10-30T14:55:54.722Z,4.30
2022-10-30T14:58:26.176Z,4.38
2022-10-30T15:01:29.318Z,4.18
2022-10-30T15:04:10.868Z,4.90
2022-10-30T15:06:52.213Z,4.57
2022-10-30T15:09:32.819Z,4.68
2022-10-30T15:12:19.523Z,4.50
2022-10-30T15:14:54.641Z,4.47
2022-10-30T15:17:30.203Z,4.75
2022-10-30T15:20:03.545Z,4.57
2022-10-30T15:24:59.677Z,4.68
2022-10-30T15:27:28.421Z,5.32
2022-10-30T15:30:00.477Z,5.05
2022-10-30T15:32:28.426Z,5.03
2022-10-30T15:35:00.967Z,5.50
2022-10-30T15:37:28.831Z,5.23
2022-10-30T15:40:17.730Z,4.85
2022-10-30T15:42:46.179Z,4.88
2022-10-30T15:45:19.255Z,5.15
2022-10-30T15:47:50.068Z,5.38
2022-10-30T15:50:21.793Z,6.07
2022-10-30T15:52:50.828Z,5.72
2022-10-30T15:55:29.683Z,5.95
2022-10-30T15:58:03.893Z,6.22
2022-10-30T16:00:35.604Z,6.00
2022-10-30T16:03:06.064Z,6.65
2022-10-30T16:05:36.677Z,7.53
2022-10-30T16:08:10.942Z,6.88
2022-10-30T16:10:40.643Z,6.57
2022-10-30T16:13:14.157Z,6.28
2022-10-30T16:15:42.633Z,7.28
2022-10-30T16:18:18.762Z,7.45
2022-10-30T16:20:50.927Z,7.07
2022-10-30T16:23:21.141Z,7.35
2022-10-30T16:25:49.887Z,6.53
2022-10-30T16:28:26.114Z,6.57
2022-10-30T16:30:54.788Z,7.80
2022-10-30T16:33:27.186Z,6.53
2022-10-30T16:35:57.113Z,5.83
2022-10-30T16:38:29.190Z,6.60
2022-10-30T16:40:57.472Z,6.65
2022-10-30T16:43:28.208Z,7.32
2022-10-30T16:45:57.664Z,6.25
2022-10-30T16:48:30.109Z,7.07
2022-10-30T16:51:03.095Z,6.90
2022-10-30T16:53:31.759Z,6.43
2022-10-30T16:56:00.842Z,6.15
2022-10-30T16:58:31.871Z,6.78
2022-10-30T17:01:05.815Z,7.40
2022-10-30T17:03:38.290Z,7.00
2022-10-30T17:06:25.634Z,7.40
2022-10-30T17:08:55.676Z,7.15
2022-10-30T17:11:35.988Z,7.15
2022-10-30T17:14:06.904Z,8.40
2022-10-30T17:16:38.383Z,7.03
2022-10-30T17:19:44.872Z,8.55
2022-10-30T17:22:18.712Z,8.65
2022-10-30T17:24:47.682Z,8.45
2022-10-30T17:27:31.631Z,8.18
2022-10-30T17:29:59.818Z,7.97
2022-10-30T17:32:28.873Z,9.05
2022-10-30T17:35:01.910Z,8.75
2022-10-30T17:37:31.090Z,8.27
2022-10-30T17:39:58.903Z,8.65
2022-10-30T17:42:26.873Z,9.82
2022-10-30T17:44:54.745Z,9.32
2022-10-30T17:47:23.689Z,10.20
2022-10-30T17:49:51.527Z,11.73
2022-10-30T17:52:21.767Z,9.93
2022-10-30T17:54:51.123Z,10.07
2022-10-30T17:57:19.263Z,11.30
2022-10-30T17:59:47.446Z,11.45
2022-10-30T18:02:17.706Z,10.98
2022-10-30T18:04:47.759Z,11.98
2022-10-30T18:07:17.646Z,12.65
2022-10-30T18:09:46.513Z,11.07
2022-10-30T18:12:19.338Z,11.45
2022-10-30T18:14:47.684Z,12.82
2022-10-30T18:17:16.194Z,13.23
2022-10-30T18:19:44.535Z,12.25
2022-10-30T18:22:12.955Z,13.75
2022-10-30T18:24:40.903Z,11.93
2022-10-30T18:27:08.697Z,13.43
2022-10-30T18:29:37.867Z,13.10
2022-10-30T18:32:09.544Z,13.13
2022-10-30T18:34:37.755Z,13.57
2022-10-30T18:37:05.583Z,14.05
2022-10-30T18:39:33.480Z,13.55
2022-10-30T18:42:01.387Z,13.10
2022-10-30T18:44:29.281Z,13.73
2022-10-30T18:47:02.800Z,15.00
2022-10-30T18:49:33.301Z,13.95
2022-10-30T18:52:01.277Z,14.00
2022-10-30T18:54:29.252Z,14.88
2022-10-30T18:56:57.083Z,16.00
2022-10-30T18:59:24.875Z,13.77
2022-10-30T19:01:53.616Z,13.85
2022-10-30T19:04:22.876Z,15.25
2022-10-30T19:06:50.906Z,14.30
2022-10-30T19:09:18.713Z,13.65
2022-10-30T19:11:46.627Z,15.20
2022-10-30T19:14:15.953Z,13.98
2022-10-30T19:16:43.810Z,15.05
2022-10-30T19:19:11.703Z,16.38
2022-10-30T19:21:40.996Z,15.48
2022-10-30T19:24:15.167Z,14.93
2022-10-30T19:26:43.078Z,14.00
2022-10-30T19:29:10.912Z,15.50
2022-10-30T19:31:38.702Z,15.55
2022-10-30T19:34:06.613Z,16.35
2022-10-30T19:36:36.948Z,15.90
2022-10-30T19:39:12.711Z,15.82
2022-10-30T19:41:41.214Z,15.48
2022-10-30T19:44:09.460Z,15.30
2022-10-30T19:46:37.553Z,14.95
2022-10-30T19:49:16.082Z,14.70
2022-10-30T19:51:43.908Z,19.55
2022-10-30T19:54:13.134Z,14.95
2022-10-30T19:56:42.178Z,15.25
2022-10-30T19:59:10.957Z,14.95
2022-10-30T20:01:38.968Z,14.70
2022-10-30T20:04:06.863Z,15.68
2022-10-30T20:06:34.656Z,14.98
2022-10-30T20:09:02.910Z,16.88
2022-10-30T20:11:32.287Z,15.60
2022-10-30T20:14:00.114Z,15.88
2022-10-30T20:16:28.000Z,15.85
2022-10-30T20:18:55.837Z,15.05
2022-10-30T20:21:23.649Z,14.63
2022-10-30T20:23:51.485Z,15.90
2022-10-30T20:26:25.003Z,14.88
2022-10-30T20:28:55.268Z,14.90
2022-10-30T20:31:23.330Z,14.20
2022-10-30T20:33:51.146Z,14.73
2022-10-30T20:36:18.968Z,14.60
2022-10-30T20:38:46.908Z,15.65
2022-10-30T20:41:22.970Z,15.80
2022-10-30T20:43:51.493Z,16.42
2022-10-30T20:46:21.612Z,16.20
2022-10-30T20:48:49.451Z,15.93
2022-10-30T20:51:17.713Z,15.20
2022-10-30T20:53:45.708Z,15.65
2022-10-30T20:56:13.600Z,16.10
2022-10-30T20:58:43.723Z,17.05
2022-10-30T21:01:13.604Z,17.17
2022-10-30T21:03:42.890Z,15.98
2022-10-30T21:06:11.054Z,16.88
2022-10-30T21:08:38.949Z,16.48
2022-10-30T21:11:07.706Z,15.27
2022-10-30T21:13:36.104Z,16.17
2022-10-30T21:16:05.883Z,16.80
2022-10-30T21:18:33.727Z,15.93
2022-10-30T21:21:06.235Z,15.80
2022-10-30T21:23:34.114Z,16.13
2022-10-30T21:26:02.554Z,16.80
2022-10-30T21:28:30.390Z,16.48
2022-10-30T21:31:03.070Z,16.95
2022-10-30T21:33:31.540Z,16.40
2022-10-30T21:36:10.909Z,16.15
2022-10-30T21:38:42.840Z,16.75
2022-10-30T21:41:12.255Z,15.93
2022-10-30T21:43:40.302Z,16.23
2022-10-30T21:46:08.319Z,18.80
2022-10-30T21:48:36.305Z,17.77
2022-10-30T21:51:12.086Z,17.77
2022-10-30T21:53:40.814Z,18.40
2022-10-30T21:56:10.837Z,18.02
2022-10-30T21:58:38.796Z,17.30
2022-10-30T22:01:07.586Z,19.48
2022-10-30T22:03:35.633Z,17.55
2022-10-30T22:06:11.909Z,16.40
2022-10-30T22:08:39.979Z,17.67
2022-10-30T22:11:10.339Z,16.65
2022-10-30T22:13:39.087Z,16.65
2022-10-30T22:16:08.806Z,18.10
2022-10-30T22:18:36.717Z,18.40
2022-10-30T22:21:07.144Z,16.77
2022-10-30T22:23:38.358Z,18.15
2022-10-30T22:26:07.996Z,17.95
2022-10-30T22:28:36.376Z,16.85
2022-10-30T22:31:05.247Z,17.35
2022-10-30T22:33:33.978Z,16.88
2022-10-30T22:36:06.597Z,16.90
2022-10-30T22:38:36.011Z,16.90
2022-10-30T22:41:11.679Z,17.52
2022-10-30T22:43:39.947Z,16.52
2022-10-30T22:46:08.277Z,17.35
2022-10-30T22:48:36.353Z,18.02
2022-10-30T22:51:08.492Z,17.50
2022-10-30T22:53:41.123Z,16.77
2022-10-30T22:56:13.969Z,17.02
2022-10-30T22:58:42.127Z,16.38
2022-10-30T23:01:11.940Z,17.35
2022-10-30T23:03:39.860Z,16.83
2022-10-30T23:06:08.223Z,17.40
2022-10-30T23:08:36.580Z,17.88
2022-10-30T23:11:06.908Z,16.52
2022-10-30T23:13:35.890Z,16.50
2022-10-30T23:16:05.606Z,18.52
2022-10-30T23:18:34.065Z,18.58
2022-10-30T23:21:03.713Z,18.02
2022-10-30T23:23:31.721Z,17.15
2022-10-30T23:26:03.479Z,17.25
2022-10-30T23:28:33.041Z,16.02
2022-10-30T23:31:00.865Z,17.23
2022-10-30T23:33:28.689Z,16.80
2022-10-30T23:35:59.730Z,16.60
2022-10-30T23:38:27.828Z,15.90
2022-10-30T23:40:55.978Z,16.30
2022-10-30T23:43:23.919Z,16.80
2022-10-30T23:45:53.636Z,15.52
2022-10-30T23:48:21.455Z,16.38
2022-10-30T23:50:49.309Z,15.98
2022-10-30T23:53:17.192Z,16.27
2022-10-30T23:55:50.836Z,16.13
2022-10-30T23:58:18.797Z,14.55
